sensor_id;sensor_type;location;lat;lon;timestamp;pressure;altitude;pressure_sealevel;temperature;humidity
72570;BME280;60594;50.204;8.844;2023-05-24T00:01:53;100497.00;;;10.23;77.94
72570;BME280;60594;50.204;8.844;2023-05-24T00:04:22;100497.16;;;10.33;78.04
72570;BME280;60594;50.204;8.844;2023-05-24T00:06:50;100510.31;;;10.23;77.77
72570;BME280;60594;50.204;8.844;2023-05-24T00:09:16;100498.81;;;10.23;77.90
72570;BME280;60594;50.204;8.844;2023-05-24T00:11:43;100493.06;;;9.80;79.88
72570;BME280;60594;50.204;8.844;2023-05-24T00:14:09;100498.22;;;9.71;79.48
72570;BME280;60594;50.204;8.844;2023-05-24T00:16:36;100495.44;;;9.72;80.00
72570;BME280;60594;50.204;8.844;2023-05-24T00:19:03;100495.44;;;9.72;80.10
72570;BME280;60594;50.204;8.844;2023-05-24T00:21:31;100500.03;;;9.70;79.87
72570;BME280;60594;50.204;8.844;2023-05-24T00:24:00;100495.44;;;9.72;80.76
72570;BME280;60594;50.204;8.844;2023-05-24T00:26:27;100501.34;;;9.88;79.55
72570;BME280;60594;50.204;8.844;2023-05-24T00:28:56;100495.31;;;9.86;79.77
72570;BME280;60594;50.204;8.844;2023-05-24T00:31:23;100501.88;;;9.93;79.63
72570;BME280;60594;50.204;8.844;2023-05-24T00:33:49;100495.81;;;9.91;79.38
72570;BME280;60594;50.204;8.844;2023-05-24T00:36:18;100494.13;;;9.90;80.20
72570;BME280;60594;50.204;8.844;2023-05-24T00:38:47;100497.69;;;9.66;80.69
72570;BME280;60594;50.204;8.844;2023-05-24T00:41:15;100497.56;;;9.80;81.48
72570;BME280;60594;50.204;8.844;2023-05-24T00:43:42;100502.25;;;9.76;80.53
72570;BME280;60594;50.204;8.844;2023-05-24T00:46:26;100502.34;;;9.75;80.11
72570;BME280;60594;50.204;8.844;2023-05-24T00:48:54;100497.81;;;9.64;80.16
72570;BME280;60594;50.204;8.844;2023-05-24T00:51:22;100499.53;;;9.53;81.77
72570;BME280;60594;50.204;8.844;2023-05-24T00:53:49;100504.66;;;9.18;83.24
72570;BME280;60594;50.204;8.844;2023-05-24T00:56:17;100510.94;;;9.17;84.09
72570;BME280;60594;50.204;8.844;2023-05-24T00:58:44;100506.78;;;9.13;82.86
72570;BME280;60594;50.204;8.844;2023-05-24T01:01:11;100509.34;;;9.15;82.28
72570;BME280;60594;50.204;8.844;2023-05-24T01:03:38;100513.28;;;9.22;82.88
72570;BME280;60594;50.204;8.844;2023-05-24T01:06:06;100507.75;;;9.25;82.33
72570;BME280;60594;50.204;8.844;2023-05-24T01:08:43;100514.47;;;9.05;82.58
72570;BME280;60594;50.204;8.844;2023-05-24T01:11:26;100512.88;;;9.28;81.34
72570;BME280;60594;50.204;8.844;2023-05-24T01:19:57;100504.25;;;9.24;80.28
72570;BME280;60594;50.204;8.844;2023-05-24T01:22:39;100502.75;;;9.20;81.37
72570;BME280;60594;50.204;8.844;2023-05-24T01:25:25;100505.31;;;9.22;81.38
72570;BME280;60594;50.204;8.844;2023-05-24T01:27:54;100503.72;;;9.32;79.93
72570;BME280;60594;50.204;8.844;2023-05-24T01:30:25;100497.84;;;9.14;81.70
72570;BME280;60594;50.204;8.844;2023-05-24T01:32:53;100498.50;;;9.30;79.67
72570;BME280;60594;50.204;8.844;2023-05-24T01:35:20;100501.47;;;9.13;80.96
72570;BME280;60594;50.204;8.844;2023-05-24T01:37:47;100498.19;;;9.22;80.44
72570;BME280;60594;50.204;8.844;2023-05-24T01:40:13;100492.13;;;9.20;80.91
72570;BME280;60594;50.204;8.844;2023-05-24T01:42:45;100492.44;;;9.28;81.49
72570;BME280;60594;50.204;8.844;2023-05-24T01:45:38;100490.06;;;9.36;80.87
72570;BME280;60594;50.204;8.844;2023-05-24T01:51:00;100496.16;;;9.26;81.87
72570;BME280;60594;50.204;8.844;2023-05-24T01:53:39;100501.59;;;9.24;80.99
72570;BME280;60594;50.204;8.844;2023-05-24T01:56:07;100502.75;;;9.20;80.43
72570;BME280;60594;50.204;8.844;2023-05-24T01:58:36;100499.25;;;9.20;80.10
72570;BME280;60594;50.204;8.844;2023-05-24T02:01:05;100501.16;;;9.05;80.02
72570;BME280;60594;50.204;8.844;2023-05-24T02:03:32;100502.00;;;9.18;80.41
72570;BME280;60594;50.204;8.844;2023-05-24T02:05:58;100504.56;;;9.07;81.88
72570;BME280;60594;50.204;8.844;2023-05-24T02:08:25;100502.56;;;9.23;81.66
72570;BME280;60594;50.204;8.844;2023-05-24T02:10:51;100498.41;;;9.19;80.16
72570;BME280;60594;50.204;8.844;2023-05-24T02:13:18;100496.16;;;9.13;81.36
72570;BME280;60594;50.204;8.844;2023-05-24T02:15:45;100503.41;;;9.11;79.94
72570;BME280;60594;50.204;8.844;2023-05-24T02:18:13;100509.75;;;9.09;81.29
72570;BME280;60594;50.204;8.844;2023-05-24T02:20:41;100503.63;;;9.08;79.96
72570;BME280;60594;50.204;8.844;2023-05-24T02:23:08;100499.03;;;9.10;79.34
72570;BME280;60594;50.204;8.844;2023-05-24T02:25:36;100496.56;;;9.07;78.00
72570;BME280;60594;50.204;8.844;2023-05-24T02:28:03;100500.41;;;9.03;78.68
72570;BME280;60594;50.204;8.844;2023-05-24T02:30:30;100500.28;;;8.92;79.10
72570;BME280;60594;50.204;8.844;2023-05-24T02:32:56;100507.19;;;8.70;80.29
72570;BME280;60594;50.204;8.844;2023-05-24T02:35:23;100504.44;;;8.71;80.96
72570;BME280;60594;50.204;8.844;2023-05-24T02:37:50;100500.19;;;8.69;79.59
72570;BME280;60594;50.204;8.844;2023-05-24T02:40:16;100504.22;;;8.74;79.97
72570;BME280;60594;50.204;8.844;2023-05-24T02:42:43;100501.19;;;8.54;81.23
72570;BME280;60594;50.204;8.844;2023-05-24T02:45:09;100497.13;;;8.48;81.06
72570;BME280;60594;50.204;8.844;2023-05-24T02:47:36;100500.78;;;8.60;79.28
72570;BME280;60594;50.204;8.844;2023-05-24T02:50:03;100506.31;;;8.57;80.42
72570;BME280;60594;50.204;8.844;2023-05-24T02:52:33;100500.31;;;8.41;79.99
72570;BME280;60594;50.204;8.844;2023-05-24T02:54:59;100495.63;;;8.44;80.51
72570;BME280;60594;50.204;8.844;2023-05-24T02:57:27;100505.06;;;8.23;81.68
72570;BME280;60594;50.204;8.844;2023-05-24T02:59:53;100510.28;;;8.37;82.24
72570;BME280;60594;50.204;8.844;2023-05-24T03:02:21;100501.63;;;8.48;79.54
72570;BME280;60594;50.204;8.844;2023-05-24T03:04:48;100502.22;;;8.39;80.33
72570;BME280;60594;50.204;8.844;2023-05-24T03:07:15;100508.09;;;8.44;80.92
72570;BME280;60594;50.204;8.844;2023-05-24T03:09:42;100508.22;;;8.55;79.63
72570;BME280;60594;50.204;8.844;2023-05-24T03:12:09;100507.50;;;8.65;79.30
72570;BME280;60594;50.204;8.844;2023-05-24T03:14:37;100499.72;;;8.62;79.72
72570;BME280;60594;50.204;8.844;2023-05-24T03:17:04;100501.09;;;8.55;79.94
72570;BME280;60594;50.204;8.844;2023-05-24T03:19:30;100506.63;;;8.52;80.32
72570;BME280;60594;50.204;8.844;2023-05-24T03:21:58;100499.00;;;8.07;82.36
72570;BME280;60594;50.204;8.844;2023-05-24T03:24:24;100499.94;;;8.06;82.07
72570;BME280;60594;50.204;8.844;2023-05-24T03:26:51;100506.84;;;8.23;82.16
72570;BME280;60594;50.204;8.844;2023-05-24T03:29:18;100494.56;;;8.34;81.10
72570;BME280;60594;50.204;8.844;2023-05-24T03:31:45;100492.84;;;8.33;81.28
72570;BME280;60594;50.204;8.844;2023-05-24T03:34:11;100498.06;;;8.08;82.22
72570;BME280;60594;50.204;8.844;2023-05-24T03:36:40;100494.69;;;8.19;82.49
72570;BME280;60594;50.204;8.844;2023-05-24T03:39:08;100494.09;;;8.28;81.59
72570;BME280;60594;50.204;8.844;2023-05-24T03:41:53;100495.50;;;8.33;81.12
72570;BME280;60594;50.204;8.844;2023-05-24T03:44:20;100497.34;;;8.19;81.16
72570;BME280;60594;50.204;8.844;2023-05-24T03:46:46;100499.66;;;8.25;81.18
72570;BME280;60594;50.204;8.844;2023-05-24T03:49:13;100492.03;;;7.92;83.64
72570;BME280;60594;50.204;8.844;2023-05-24T03:51:40;100501.63;;;8.07;82.03
72570;BME280;60594;50.204;8.844;2023-05-24T03:54:06;100499.84;;;8.08;82.33
72570;BME280;60594;50.204;8.844;2023-05-24T03:56:33;100504.97;;;8.11;81.57
72570;BME280;60594;50.204;8.844;2023-05-24T03:59:03;100506.03;;;8.08;82.58
72570;BME280;60594;50.204;8.844;2023-05-24T04:01:30;100504.03;;;7.98;82.76
72570;BME280;60594;50.204;8.844;2023-05-24T04:03:57;100519.50;;;7.91;83.35
72570;BME280;60594;50.204;8.844;2023-05-24T04:06:24;100518.81;;;8.02;82.60
72570;BME280;60594;50.204;8.844;2023-05-24T04:08:55;100519.50;;;7.91;82.75
72570;BME280;60594;50.204;8.844;2023-05-24T04:11:22;100519.41;;;7.93;82.45
72570;BME280;60594;50.204;8.844;2023-05-24T04:13:48;100514.69;;;7.84;83.63
72570;BME280;60594;50.204;8.844;2023-05-24T04:16:36;100517.06;;;7.88;83.91
72570;BME280;60594;50.204;8.844;2023-05-24T04:19:06;100529.16;;;7.92;83.74
72570;BME280;60594;50.204;8.844;2023-05-24T04:21:34;100518.72;;;7.63;84.24
72570;BME280;60594;50.204;8.844;2023-05-24T04:24:03;100526.22;;;7.42;85.66
72570;BME280;60594;50.204;8.844;2023-05-24T04:26:30;100534.31;;;6.97;87.53
72570;BME280;60594;50.204;8.844;2023-05-24T04:28:58;100529.13;;;7.09;87.76
72570;BME280;60594;50.204;8.844;2023-05-24T04:31:25;100534.72;;;7.33;86.02
72570;BME280;60594;50.204;8.844;2023-05-24T04:33:56;100534.34;;;7.39;86.07
72570;BME280;60594;50.204;8.844;2023-05-24T04:36:24;100534.91;;;7.30;86.75
72570;BME280;60594;50.204;8.844;2023-05-24T04:38:51;100536.78;;;7.00;87.47
72570;BME280;60594;50.204;8.844;2023-05-24T04:41:21;100541.44;;;7.11;87.19
72570;BME280;60594;50.204;8.844;2023-05-24T04:43:47;100542.66;;;7.19;86.72
72570;BME280;60594;50.204;8.844;2023-05-24T04:46:15;100541.16;;;7.29;87.13
72570;BME280;60594;50.204;8.844;2023-05-24T04:48:43;100541.09;;;7.45;86.45
72570;BME280;60594;50.204;8.844;2023-05-24T04:51:10;100543.06;;;7.55;85.07
72570;BME280;60594;50.204;8.844;2023-05-24T04:53:36;100551.47;;;7.62;85.27
72570;BME280;60594;50.204;8.844;2023-05-24T04:56:04;100545.06;;;7.52;85.21
72570;BME280;60594;50.204;8.844;2023-05-24T04:58:30;100543.41;;;7.63;85.15
72570;BME280;60594;50.204;8.844;2023-05-24T05:00:57;100537.38;;;7.75;85.44
72570;BME280;60594;50.204;8.844;2023-05-24T05:03:24;100543.34;;;7.65;84.61
72570;BME280;60594;50.204;8.844;2023-05-24T05:05:50;100540.41;;;7.69;84.79
72570;BME280;60594;50.204;8.844;2023-05-24T05:08:17;100544.75;;;7.70;85.17
72570;BME280;60594;50.204;8.844;2023-05-24T05:10:45;100552.41;;;7.89;83.98
72570;BME280;60594;50.204;8.844;2023-05-24T05:13:13;100559.53;;;7.74;84.81
72570;BME280;60594;50.204;8.844;2023-05-24T05:15:40;100563.63;;;7.66;84.80
72570;BME280;60594;50.204;8.844;2023-05-24T05:18:06;100562.25;;;7.73;83.47
72570;BME280;60594;50.204;8.844;2023-05-24T05:20:33;100556.22;;;7.71;84.67
72570;BME280;60594;50.204;8.844;2023-05-24T05:22:59;100561.34;;;7.60;84.69
72570;BME280;60594;50.204;8.844;2023-05-24T05:25:26;100564.72;;;7.76;83.97
72570;BME280;60594;50.204;8.844;2023-05-24T05:27:53;100560.38;;;7.75;85.20
72570;BME280;60594;50.204;8.844;2023-05-24T05:30:20;100572.69;;;7.76;84.95
72570;BME280;60594;50.204;8.844;2023-05-24T05:32:46;100573.91;;;7.98;83.79
72570;BME280;60594;50.204;8.844;2023-05-24T05:35:12;100571.41;;;8.09;83.21
72570;BME280;60594;50.204;8.844;2023-05-24T05:37:39;100571.59;;;8.06;82.95
72570;BME280;60594;50.204;8.844;2023-05-24T05:40:06;100570.72;;;8.20;82.64
72570;BME280;60594;50.204;8.844;2023-05-24T05:42:32;100576.72;;;8.09;81.81
72570;BME280;60594;50.204;8.844;2023-05-24T05:45:00;100579.16;;;8.26;80.71
72570;BME280;60594;50.204;8.844;2023-05-24T05:47:27;100582.78;;;8.25;81.59
72570;BME280;60594;50.204;8.844;2023-05-24T05:49:55;100582.38;;;8.17;81.60
72570;BME280;60594;50.204;8.844;2023-05-24T05:52:21;100582.03;;;8.23;81.19
72570;BME280;60594;50.204;8.844;2023-05-24T05:54:48;100593.13;;;8.30;81.13
72570;BME280;60594;50.204;8.844;2023-05-24T05:57:14;100586.09;;;8.15;82.17
72570;BME280;60594;50.204;8.844;2023-05-24T05:59:41;100582.47;;;8.16;81.74
72570;BME280;60594;50.204;8.844;2023-05-24T06:02:09;100597.16;;;8.35;80.98
72570;BME280;60594;50.204;8.844;2023-05-24T06:04:38;100592.06;;;8.32;80.69
72570;BME280;60594;50.204;8.844;2023-05-24T06:07:05;100593.06;;;8.44;80.09
72570;BME280;60594;50.204;8.844;2023-05-24T06:09:32;100582.56;;;8.42;78.83
72570;BME280;60594;50.204;8.844;2023-05-24T06:11:58;100592.31;;;8.42;79.94
72570;BME280;60594;50.204;8.844;2023-05-24T06:14:24;100590.81;;;8.38;79.14
72570;BME280;60594;50.204;8.844;2023-05-24T06:16:51;100589.75;;;8.40;79.99
72570;BME280;60594;50.204;8.844;2023-05-24T06:19:19;100602.03;;;8.55;79.22
72570;BME280;60594;50.204;8.844;2023-05-24T06:21:49;100589.81;;;8.53;80.88
72570;BME280;60594;50.204;8.844;2023-05-24T06:24:17;100595.94;;;8.67;81.44
72570;BME280;60594;50.204;8.844;2023-05-24T06:26:48;100593.28;;;8.67;81.34
72570;BME280;60594;50.204;8.844;2023-05-24T06:29:15;100584.16;;;8.71;79.22
72570;BME280;60594;50.204;8.844;2023-05-24T06:31:42;100598.81;;;8.77;78.28
72570;BME280;60594;50.204;8.844;2023-05-24T06:34:08;100581.69;;;8.68;78.49
72570;BME280;60594;50.204;8.844;2023-05-24T06:36:35;100591.78;;;8.76;78.26
72570;BME280;60594;50.204;8.844;2023-05-24T06:39:11;100596.84;;;8.93;76.09
72570;BME280;60594;50.204;8.844;2023-05-24T06:41:38;100593.13;;;8.95;76.69
72570;BME280;60594;50.204;8.844;2023-05-24T06:44:05;100590.06;;;9.01;75.65
72570;BME280;60594;50.204;8.844;2023-05-24T06:46:31;100599.78;;;8.88;73.90
72570;BME280;60594;50.204;8.844;2023-05-24T06:48:58;100595.94;;;8.80;75.73
72570;BME280;60594;50.204;8.844;2023-05-24T06:51:25;100601.09;;;8.95;74.61
72570;BME280;60594;50.204;8.844;2023-05-24T06:53:51;100601.53;;;8.89;74.83
72570;BME280;60594;50.204;8.844;2023-05-24T06:56:18;100605.19;;;9.13;72.79
72570;BME280;60594;50.204;8.844;2023-05-24T06:58:45;100601.78;;;9.11;73.18
72570;BME280;60594;50.204;8.844;2023-05-24T07:01:12;100600.50;;;9.29;73.78
72570;BME280;60594;50.204;8.844;2023-05-24T07:03:39;100594.38;;;9.41;72.91
72570;BME280;60594;50.204;8.844;2023-05-24T07:06:06;100604.25;;;9.52;70.95
72570;BME280;60594;50.204;8.844;2023-05-24T07:08:35;100617.44;;;9.53;72.07
72570;BME280;60594;50.204;8.844;2023-05-24T07:11:01;100614.78;;;9.53;70.81
72570;BME280;60594;50.204;8.844;2023-05-24T07:13:28;100627.00;;;9.43;72.04
72570;BME280;60594;50.204;8.844;2023-05-24T07:15:55;100616.16;;;9.46;72.16
72570;BME280;60594;50.204;8.844;2023-05-24T07:18:21;100629.28;;;9.62;71.09
72570;BME280;60594;50.204;8.844;2023-05-24T07:20:48;100618.19;;;9.68;68.70
72570;BME280;60594;50.204;8.844;2023-05-24T07:23:14;100626.81;;;9.71;69.88
72570;BME280;60594;50.204;8.844;2023-05-24T07:25:41;100626.91;;;9.57;71.77
72570;BME280;60594;50.204;8.844;2023-05-24T07:28:07;100627.44;;;9.75;72.74
72570;BME280;60594;50.204;8.844;2023-05-24T07:30:33;100631.94;;;9.87;68.38
72570;BME280;60594;50.204;8.844;2023-05-24T07:33:00;100642.13;;;9.80;69.92
72570;BME280;60594;50.204;8.844;2023-05-24T07:35:28;100649.38;;;9.78;68.27
72570;BME280;60594;50.204;8.844;2023-05-24T07:37:54;100639.06;;;9.74;70.43
72570;BME280;60594;50.204;8.844;2023-05-24T07:40:21;100636.38;;;9.61;72.01
72570;BME280;60594;50.204;8.844;2023-05-24T07:42:48;100643.97;;;9.67;72.44
72570;BME280;60594;50.204;8.844;2023-05-24T07:45:14;100647.25;;;9.83;70.98
72570;BME280;60594;50.204;8.844;2023-05-24T07:47:41;100646.06;;;9.87;72.31
72570;BME280;60594;50.204;8.844;2023-05-24T07:50:08;100641.50;;;10.02;70.02
72570;BME280;60594;50.204;8.844;2023-05-24T07:52:35;100638.94;;;10.13;71.16
72570;BME280;60594;50.204;8.844;2023-05-24T07:55:02;100618.25;;;10.04;69.29
72570;BME280;60594;50.204;8.844;2023-05-24T07:57:28;100632.94;;;10.34;71.05
72570;BME280;60594;50.204;8.844;2023-05-24T07:59:55;100639.13;;;10.35;67.82
72570;BME280;60594;50.204;8.844;2023-05-24T08:02:22;100629.28;;;10.35;69.24
72570;BME280;60594;50.204;8.844;2023-05-24T08:04:49;100621.00;;;10.27;66.93
72570;BME280;60594;50.204;8.844;2023-05-24T08:07:15;100638.50;;;10.19;69.50
72570;BME280;60594;50.204;8.844;2023-05-24T08:09:42;100651.09;;;10.17;68.25
72570;BME280;60594;50.204;8.844;2023-05-24T08:12:09;100636.81;;;10.18;67.68
72570;BME280;60594;50.204;8.844;2023-05-24T08:14:35;100649.81;;;10.22;68.56
72570;BME280;60594;50.204;8.844;2023-05-24T08:17:02;100644.25;;;10.25;67.85
72570;BME280;60594;50.204;8.844;2023-05-24T08:19:28;100640.63;;;10.26;68.66
72570;BME280;60594;50.204;8.844;2023-05-24T08:22:01;100635.22;;;10.15;68.26
72570;BME280;60594;50.204;8.844;2023-05-24T08:24:30;100636.81;;;10.18;67.50
72570;BME280;60594;50.204;8.844;2023-05-24T08:26:57;100646.28;;;10.22;68.70
72570;BME280;60594;50.204;8.844;2023-05-24T08:29:23;100637.66;;;10.18;67.41
72570;BME280;60594;50.204;8.844;2023-05-24T08:31:50;100635.81;;;10.31;65.84
72570;BME280;60594;50.204;8.844;2023-05-24T08:34:17;100627.72;;;10.33;65.92
72570;BME280;60594;50.204;8.844;2023-05-24T08:36:43;100631.81;;;10.50;67.51
72570;BME280;60594;50.204;8.844;2023-05-24T08:39:10;100630.97;;;10.73;67.11
72570;BME280;60594;50.204;8.844;2023-05-24T08:41:37;100629.72;;;10.89;65.91
72570;BME280;60594;50.204;8.844;2023-05-24T08:44:07;100629.38;;;10.94;64.83
72570;BME280;60594;50.204;8.844;2023-05-24T08:46:34;100629.00;;;10.87;62.81
72570;BME280;60594;50.204;8.844;2023-05-24T08:49:02;100621.97;;;10.97;64.38
72570;BME280;60594;50.204;8.844;2023-05-24T08:51:29;100612.22;;;11.09;66.01
72570;BME280;60594;50.204;8.844;2023-05-24T08:53:59;100626.34;;;11.22;65.48
72570;BME280;60594;50.204;8.844;2023-05-24T08:56:26;100615.22;;;11.39;64.00
72570;BME280;60594;50.204;8.844;2023-05-24T08:58:54;100623.13;;;11.51;64.60
72570;BME280;60594;50.204;8.844;2023-05-24T09:01:22;100615.94;;;11.75;63.01
72570;BME280;60594;50.204;8.844;2023-05-24T09:03:50;100601.38;;;11.90;65.37
72570;BME280;60594;50.204;8.844;2023-05-24T09:06:17;100607.41;;;12.03;60.63
72570;BME280;60594;50.204;8.844;2023-05-24T09:08:44;100608.75;;;11.98;60.49
72570;BME280;60594;50.204;8.844;2023-05-24T09:11:13;100616.66;;;11.88;62.86
72570;BME280;60594;50.204;8.844;2023-05-24T09:13:40;100605.38;;;11.85;62.56
72570;BME280;60594;50.204;8.844;2023-05-24T09:16:07;100601.25;;;11.92;62.35
72570;BME280;60594;50.204;8.844;2023-05-24T09:18:33;100615.66;;;12.00;63.22
72570;BME280;60594;50.204;8.844;2023-05-24T09:21:00;100607.53;;;12.02;60.98
72570;BME280;60594;50.204;8.844;2023-05-24T09:23:26;100616.03;;;12.29;60.87
72570;BME280;60594;50.204;8.844;2023-05-24T09:25:53;100620.41;;;12.30;63.81
72570;BME280;60594;50.204;8.844;2023-05-24T09:28:19;100617.63;;;12.74;62.87
72570;BME280;60594;50.204;8.844;2023-05-24T09:30:58;100613.53;;;12.59;58.75
72570;BME280;60594;50.204;8.844;2023-05-24T09:33:29;100625.09;;;12.48;59.53
72570;BME280;60594;50.204;8.844;2023-05-24T09:35:57;100622.97;;;12.74;58.51
72570;BME280;60594;50.204;8.844;2023-05-24T09:38:24;100617.72;;;12.83;59.96
72570;BME280;60594;50.204;8.844;2023-05-24T09:43:26;100619.84;;;12.58;60.63
72570;BME280;60594;50.204;8.844;2023-05-24T09:45:55;100612.59;;;12.49;59.43
72570;BME280;60594;50.204;8.844;2023-05-24T09:48:23;100607.69;;;12.96;65.25
72570;BME280;60594;50.204;8.844;2023-05-24T09:51:03;100614.03;;;13.47;59.33
72570;BME280;60594;50.204;8.844;2023-05-24T09:53:33;100609.28;;;14.11;57.24
72570;BME280;60594;50.204;8.844;2023-05-24T09:56:05;100603.66;;;14.14;53.74
72570;BME280;60594;50.204;8.844;2023-05-24T09:58:34;100607.69;;;12.96;54.44
72570;BME280;60594;50.204;8.844;2023-05-24T10:01:09;100602.72;;;13.03;55.04
72570;BME280;60594;50.204;8.844;2023-05-24T10:03:54;100612.31;;;13.05;57.89
72570;BME280;60594;50.204;8.844;2023-05-24T10:06:20;100601.69;;;13.56;55.83
72570;BME280;60594;50.204;8.844;2023-05-24T10:08:47;100604.44;;;13.45;55.32
72570;BME280;60594;50.204;8.844;2023-05-24T10:11:17;100598.88;;;13.57;57.00
72570;BME280;60594;50.204;8.844;2023-05-24T10:13:44;100602.50;;;13.77;57.54
72570;BME280;60594;50.204;8.844;2023-05-24T10:16:10;100606.25;;;13.65;57.60
72570;BME280;60594;50.204;8.844;2023-05-24T10:18:37;100598.34;;;13.94;53.83
72570;BME280;60594;50.204;8.844;2023-05-24T10:21:05;100592.06;;;14.14;56.19
72570;BME280;60594;50.204;8.844;2023-05-24T10:23:38;100581.31;;;14.04;53.17
72570;BME280;60594;50.204;8.844;2023-05-24T10:26:09;100605.41;;;13.95;53.40
72570;BME280;60594;50.204;8.844;2023-05-24T10:28:43;100599.47;;;13.91;54.58
72570;BME280;60594;50.204;8.844;2023-05-24T10:31:14;100598.72;;;14.19;53.67
72570;BME280;60594;50.204;8.844;2023-05-24T10:33:44;100604.41;;;14.65;54.02
72570;BME280;60594;50.204;8.844;2023-05-24T10:36:13;100598.03;;;14.57;54.02
72570;BME280;60594;50.204;8.844;2023-05-24T10:38:41;100596.91;;;14.78;52.65
72570;BME280;60594;50.204;8.844;2023-05-24T10:41:10;100588.72;;;14.89;50.72
72570;BME280;60594;50.204;8.844;2023-05-24T10:43:38;100583.09;;;14.83;50.64
72570;BME280;60594;50.204;8.844;2023-05-24T10:46:07;100579.81;;;14.70;50.55
72570;BME280;60594;50.204;8.844;2023-05-24T10:48:38;100591.09;;;14.45;51.25
72570;BME280;60594;50.204;8.844;2023-05-24T10:51:37;100584.91;;;14.63;53.94
72570;BME280;60594;50.204;8.844;2023-05-24T10:54:12;100582.53;;;14.89;53.97
72570;BME280;60594;50.204;8.844;2023-05-24T10:56:39;100580.13;;;14.95;53.92
72570;BME280;60594;50.204;8.844;2023-05-24T10:59:07;100571.50;;;15.11;51.93
72570;BME280;60594;50.204;8.844;2023-05-24T11:01:35;100577.41;;;15.43;53.14
72570;BME280;60594;50.204;8.844;2023-05-24T11:04:06;100572.63;;;15.27;49.53
72570;BME280;60594;50.204;8.844;2023-05-24T11:06:49;100575.16;;;15.19;49.51
72570;BME280;60594;50.204;8.844;2023-05-24T11:09:21;100563.44;;;15.01;52.51
72570;BME280;60594;50.204;8.844;2023-05-24T11:11:53;100570.34;;;14.85;50.86
72570;BME280;60594;50.204;8.844;2023-05-24T11:14:26;100574.00;;;14.46;51.71
72570;BME280;60594;50.204;8.844;2023-05-24T11:16:52;100570.69;;;14.23;49.11
72570;BME280;60594;50.204;8.844;2023-05-24T11:19:21;100570.72;;;14.33;52.00
72570;BME280;60594;50.204;8.844;2023-05-24T11:21:50;100565.97;;;14.55;52.62
72570;BME280;60594;50.204;8.844;2023-05-24T11:24:19;100563.44;;;14.92;49.95
72570;BME280;60594;50.204;8.844;2023-05-24T11:26:47;100559.66;;;15.04;50.54
72570;BME280;60594;50.204;8.844;2023-05-24T11:29:14;100558.34;;;15.27;51.96
72570;BME280;60594;50.204;8.844;2023-05-24T11:31:54;100557.06;;;15.40;49.97
72570;BME280;60594;50.204;8.844;2023-05-24T11:34:23;100564.69;;;15.45;56.56
72570;BME280;60594;50.204;8.844;2023-05-24T11:36:50;100555.78;;;15.25;50.30
72570;BME280;60594;50.204;8.844;2023-05-24T11:39:20;100565.84;;;15.33;48.88
72570;BME280;60594;50.204;8.844;2023-05-24T11:41:47;100562.16;;;15.43;49.38
72570;BME280;60594;50.204;8.844;2023-05-24T11:44:16;100558.34;;;15.27;47.46
72570;BME280;60594;50.204;8.844;2023-05-24T11:46:45;100562.72;;;15.18;46.12
72570;BME280;60594;50.204;8.844;2023-05-24T11:49:13;100551.56;;;15.23;48.95
72570;BME280;60594;50.204;8.844;2023-05-24T11:51:40;100563.00;;;15.25;48.89
72570;BME280;60594;50.204;8.844;2023-05-24T11:54:07;100552.41;;;15.04;50.08
72570;BME280;60594;50.204;8.844;2023-05-24T11:56:34;100561.06;;;14.98;47.74
72570;BME280;60594;50.204;8.844;2023-05-24T11:59:16;100568.38;;;15.15;51.08
72570;BME280;60594;50.204;8.844;2023-05-24T12:01:43;100551.81;;;15.48;48.65
72570;BME280;60594;50.204;8.844;2023-05-24T12:04:10;100548.59;;;15.81;52.99
72570;BME280;60594;50.204;8.844;2023-05-24T12:06:39;100551.56;;;16.15;49.68
72570;BME280;60594;50.204;8.844;2023-05-24T12:09:07;100542.63;;;16.14;48.38
72570;BME280;60594;50.204;8.844;2023-05-24T12:11:42;100555.94;;;16.16;46.43
72570;BME280;60594;50.204;8.844;2023-05-24T12:14:22;100555.19;;;16.23;46.13
72570;BME280;60594;50.204;8.844;2023-05-24T12:16:49;100540.22;;;16.11;48.54
72570;BME280;60594;50.204;8.844;2023-05-24T12:19:20;100550.13;;;16.20;45.14
72570;BME280;60594;50.204;8.844;2023-05-24T12:21:47;100553.69;;;16.11;49.44
72570;BME280;60594;50.204;8.844;2023-05-24T12:24:17;100547.47;;;16.11;46.51
72570;BME280;60594;50.204;8.844;2023-05-24T12:26:48;100553.25;;;15.89;45.43
72570;BME280;60594;50.204;8.844;2023-05-24T12:29:15;100555.50;;;15.84;50.00
72570;BME280;60594;50.204;8.844;2023-05-24T12:31:43;100552.78;;;15.93;46.61
72570;BME280;60594;50.204;8.844;2023-05-24T12:34:17;100548.09;;;15.95;45.37
72570;BME280;60594;50.204;8.844;2023-05-24T12:36:45;100550.03;;;16.12;44.58
72570;BME280;60594;50.204;8.844;2023-05-24T12:39:22;100538.44;;;16.29;47.13
72570;BME280;60594;50.204;8.844;2023-05-24T12:41:53;100538.59;;;16.55;47.50
72570;BME280;60594;50.204;8.844;2023-05-24T12:44:26;100540.38;;;16.37;43.68
72570;BME280;60594;50.204;8.844;2023-05-24T12:46:53;100534.22;;;16.00;44.81
72570;BME280;60594;50.204;8.844;2023-05-24T12:49:24;100548.06;;;15.78;46.18
72570;BME280;60594;50.204;8.844;2023-05-24T12:51:52;100543.41;;;15.70;48.93
72570;BME280;60594;50.204;8.844;2023-05-24T12:54:21;100537.56;;;15.84;51.38
72570;BME280;60594;50.204;8.844;2023-05-24T12:56:48;100524.22;;;15.92;46.13
72570;BME280;60594;50.204;8.844;2023-05-24T12:59:15;100518.88;;;15.83;47.19
72570;BME280;60594;50.204;8.844;2023-05-24T13:01:41;100531.94;;;16.05;48.99
72570;BME280;60594;50.204;8.844;2023-05-24T13:04:08;100525.69;;;16.31;45.88
72570;BME280;60594;50.204;8.844;2023-05-24T13:06:36;100518.44;;;16.32;46.50
72570;BME280;60594;50.204;8.844;2023-05-24T13:09:03;100529.91;;;16.34;46.15
72570;BME280;60594;50.204;8.844;2023-05-24T13:11:32;100521.19;;;16.22;44.93
72570;BME280;60594;50.204;8.844;2023-05-24T13:14:01;100511.44;;;16.21;43.77